Time;durP1;ratioP1;P1;durP2;ratioP2;P2;SDS_P1;SDS_P2;PMS_P1;PMS_P2;Temp;Humidity;BMP_temperature;BMP_pressure;BME280_temperature;BME280_humidity;BME280_pressure;Samples;Min_cycle;Max_cycle;Signal;HPM_P1;HPM_P2
2021/04/27 00:01:32;;;;;;;10.82;3.03;;;;;;;23.90;38.01;99481.69;4474469;32;34120;-59
2021/04/27 00:03:59;;;;;;;11.18;2.72;;;;;;;23.88;38.13;99479.22;4468240;32;33346;-59
2021/04/27 00:06:26;;;;;;;8.63;2.80;;;;;;;23.88;38.23;99475.66;4468378;32;33960;-61
2021/04/27 00:08:53;;;;;;;10.77;2.78;;;;;;;23.88;38.21;99479.22;4468352;32;34077;-62
2021/04/27 00:11:21;;;;;;;10.82;3.15;;;;;;;23.87;38.29;99471.25;4468124;32;33993;-61
2021/04/27 00:13:48;;;;;;;9.55;2.42;;;;;;;23.86;38.26;99461.44;4474768;32;33565;-57
2021/04/27 00:16:15;;;;;;;10.52;2.65;;;;;;;23.86;38.22;99454.06;4477491;32;34089;-59
2021/04/27 00:18:42;;;;;;;10.70;2.70;;;;;;;23.87;38.24;99457.63;4474749;32;34239;-58
2021/04/27 00:21:09;;;;;;;12.10;2.42;;;;;;;23.86;38.24;99447.81;4468264;32;33849;-56
2021/04/27 00:23:35;;;;;;;10.70;3.37;;;;;;;23.85;38.23;99451.59;4482489;32;33461;-59
2021/04/27 00:26:03;;;;;;;8.70;2.58;;;;;;;23.84;38.28;99444.50;4483159;32;34009;-61
2021/04/27 00:28:30;;;;;;;6.47;2.80;;;;;;;23.83;38.30;99438.22;4477177;32;35206;-61
2021/04/27 00:30:56;;;;;;;9.45;2.20;;;;;;;23.83;38.22;99442.84;4468126;32;33889;-60
2021/04/27 00:33:24;;;;;;;14.32;2.50;;;;;;;23.83;38.19;99449.12;4475232;31;35011;-61
2021/04/27 00:35:50;;;;;;;8.75;3.08;;;;;;;23.83;38.28;99440.12;4478436;31;34534;-59
2021/04/27 00:38:17;;;;;;;10.27;2.95;;;;;;;23.80;38.37;99440.59;4477280;31;35236;-58
2021/04/27 00:40:44;;;;;;;13.68;2.65;;;;;;;23.80;38.38;99440.59;4480258;32;33755;-59
2021/04/27 00:43:11;;;;;;;17.20;3.28;;;;;;;23.80;38.36;99435.13;4483343;32;34610;-59
2021/04/27 00:45:38;;;;;;;9.98;2.87;;;;;;;23.80;38.29;99435.13;4478038;32;33576;-59
2021/04/27 00:48:05;;;;;;;8.50;2.60;;;;;;;23.81;38.26;99436.78;4467811;32;33661;-58
2021/04/27 00:50:36;;;;;;;7.90;2.70;;;;;;;23.79;38.30;99430.75;4467697;32;33703;-59
2021/04/27 00:53:03;;;;;;;10.85;2.40;;;;;;;23.77;38.36;99428.25;4467808;32;33015;-58
2021/04/27 00:55:31;;;;;;;7.95;2.55;;;;;;;23.77;38.35;99425.53;4467696;32;33899;-58
2021/04/27 00:58:01;;;;;;;11.40;2.97;;;;;;;23.77;38.41;99424.72;4473071;32;34198;-58
2021/04/27 01:00:33;;;;;;;8.70;2.58;;;;;;;23.77;38.47;99417.38;4483381;32;33523;-59
2021/04/27 01:03:02;;;;;;;3.90;1.67;;;;;;;23.76;38.47;99415.72;4482812;32;34345;-60
2021/04/27 01:05:30;;;;;;;9.93;2.70;;;;;;;23.76;38.40;99412.16;4470427;32;34033;-61
2021/04/27 01:08:24;;;;;;;12.23;2.58;;;;;;;23.74;38.43;99417.03;4472798;32;33981;-61
2021/04/27 01:11:10;;;;;;;7.95;2.35;;;;;;;23.77;38.50;99417.38;4485657;32;34907;-59
2021/04/27 01:14:05;;;;;;;10.00;2.30;;;;;;;23.73;38.55;99413.44;4481729;32;33355;-59
2021/04/27 01:16:33;;;;;;;7.03;2.42;;;;;;;23.74;38.58;99412.41;4482774;32;34037;-59
2021/04/27 01:19:00;;;;;;;8.43;2.33;;;;;;;23.71;38.54;99409.31;4485323;31;32577;-60
2021/04/27 01:21:28;;;;;;;8.45;2.22;;;;;;;23.71;38.52;99412.03;4480170;32;33939;-59
2021/04/27 01:24:10;;;;;;;6.68;2.40;;;;;;;23.71;38.56;99412.03;4455517;32;33288;-57
2021/04/27 01:26:45;;;;;;;5.78;2.50;;;;;;;23.71;38.60;99401.16;4469649;32;33885;-60
2021/04/27 01:29:14;;;;;;;8.05;2.40;;;;;;;23.69;38.60;99409.56;4469614;32;33970;-58
2021/04/27 01:31:41;;;;;;;5.12;1.80;;;;;;;23.68;38.60;99406.00;4469594;32;33905;-59
2021/04/27 01:34:08;;;;;;;6.97;2.60;;;;;;;23.67;38.55;99401.63;4476883;32;34075;-59
2021/04/27 01:36:36;;;;;;;8.57;2.65;;;;;;;23.68;38.59;99402.44;4483708;32;33669;-59
2021/04/27 01:39:05;;;;;;;10.23;2.30;;;;;;;23.67;38.62;99396.16;4483826;32;33613;-57
2021/04/27 01:41:33;;;;;;;7.72;2.67;;;;;;;23.66;38.66;99389.06;4485260;32;34975;-57
2021/04/27 01:44:00;;;;;;;7.25;2.40;;;;;;;23.67;38.66;99398.91;4485098;32;33444;-58
2021/04/27 01:46:27;;;;;;;12.68;2.17;;;;;;;23.66;38.65;99394.53;4483844;32;34024;-59
2021/04/27 01:48:54;;;;;;;6.05;2.37;;;;;;;23.67;38.75;99396.16;4471014;32;34151;-59
2021/04/27 01:51:23;;;;;;;6.28;2.53;;;;;;;23.66;38.71;99396.41;4483414;32;34785;-59
2021/04/27 01:53:52;;;;;;;6.93;2.10;;;;;;;23.67;38.63;99385.28;4470946;32;31297;-60
2021/04/27 01:56:20;;;;;;;7.05;2.80;;;;;;;23.67;38.83;99384.44;4484101;32;33785;-59
2021/04/27 01:58:48;;;;;;;5.28;2.30;;;;;;;23.66;38.80;99386.34;4482395;32;33992;-61
2021/04/27 02:01:17;;;;;;;7.10;1.75;;;;;;;23.65;38.78;99387.41;4469531;32;33877;-61
2021/04/27 02:03:45;;;;;;;8.85;2.95;;;;;;;23.65;38.71;99379.25;4476942;32;33324;-59
2021/04/27 02:06:14;;;;;;;8.65;2.33;;;;;;;23.65;38.67;99383.87;4484895;32;34996;-61
2021/04/27 02:08:47;;;;;;;11.57;2.40;;;;;;;23.66;38.67;99382.81;4484950;32;34042;-61
2021/04/27 02:11:14;;;;;;;4.00;1.85;;;;;;;23.65;38.86;99378.44;4483717;32;33933;-60
2021/04/27 02:13:41;;;;;;;6.93;2.58;;;;;;;23.64;38.70;99363.97;4483655;32;33111;-61
2021/04/27 02:16:08;;;;;;;6.68;2.10;;;;;;;23.64;38.76;99376.75;4474723;32;35534;-61
2021/04/27 02:18:39;;;;;;;8.45;2.28;;;;;;;23.62;38.70;99368.78;4454791;32;34217;-61
2021/04/27 02:21:06;;;;;;;4.95;1.98;;;;;;;23.62;38.85;99367.97;4468187;32;34979;-61
2021/04/27 02:23:40;;;;;;;8.23;2.30;;;;;;;23.62;38.71;99370.69;4455708;32;33274;-61
2021/04/27 02:26:08;;;;;;;7.30;2.20;;;;;;;23.61;38.76;99372.59;4455193;32;34813;-61
2021/04/27 02:28:37;;;;;;;8.40;2.33;;;;;;;23.61;38.88;99374.50;4468196;32;33997;-61
2021/04/27 02:31:03;;;;;;;5.97;2.35;;;;;;;23.60;38.95;99364.66;4467893;32;35221;-61
2021/04/27 02:33:31;;;;;;;4.12;2.10;;;;;;;23.60;38.90;99373.66;4467464;32;34774;-61
2021/04/27 02:35:58;;;;;;;6.18;1.90;;;;;;;23.60;38.86;99375.56;4467772;32;33609;-61
2021/04/27 02:38:26;;;;;;;8.38;2.47;;;;;;;23.60;38.86;99364.66;4469070;32;35036;-62
2021/04/27 02:40:54;;;;;;;8.98;1.98;;;;;;;23.59;38.88;99362.97;4469197;32;33532;-61
2021/04/27 02:43:22;;;;;;;5.55;1.90;;;;;;;23.59;38.85;99358.34;4469185;32;34531;-61
2021/04/27 02:45:49;;;;;;;5.53;1.83;;;;;;;23.59;38.84;99362.97;4454819;32;35756;-61
2021/04/27 02:48:25;;;;;;;12.88;2.95;;;;;;;23.58;38.86;99359.44;4468825;32;33160;-61
2021/04/27 02:50:54;;;;;;;6.70;2.37;;;;;;;23.59;38.86;99357.53;4469209;32;33924;-60
2021/04/27 02:53:22;;;;;;;6.12;2.50;;;;;;;23.58;38.92;99358.59;4482827;32;33595;-61
2021/04/27 02:55:49;;;;;;;11.82;2.15;;;;;;;23.57;38.88;99356.97;4484681;32;33745;-61
2021/04/27 02:58:17;;;;;;;6.78;2.10;;;;;;;23.57;38.94;99363.22;4484526;32;34956;-61
2021/04/27 03:00:45;;;;;;;6.03;1.67;;;;;;;23.57;38.97;99367.84;4484680;31;33496;-61
2021/04/27 03:03:12;;;;;;;7.90;2.17;;;;;;;23.57;38.98;99362.41;4484589;32;34262;-61
2021/04/27 03:05:39;;;;;;;5.97;2.08;;;;;;;23.57;38.95;99357.78;4484470;32;34056;-61
2021/04/27 03:08:10;;;;;;;5.37;2.00;;;;;;;23.56;38.96;99358.84;4484340;32;34919;-61
2021/04/27 03:10:38;;;;;;;10.68;2.47;;;;;;;23.56;38.96;99352.59;4484499;32;34492;-61
2021/04/27 03:13:05;;;;;;;3.60;1.58;;;;;;;23.57;38.96;99365.97;4484314;32;34234;-60
2021/04/27 03:15:34;;;;;;;11.43;2.40;;;;;;;23.56;38.87;99353.41;4484258;32;33511;-59
2021/04/27 03:18:01;;;;;;;5.55;1.98;;;;;;;23.55;38.97;99359.94;4484724;31;32419;-60
2021/04/27 03:20:28;;;;;;;6.55;2.10;;;;;;;23.55;39.00;99359.94;4484497;32;33693;-60
2021/04/27 03:22:57;;;;;;;5.12;2.08;;;;;;;23.55;38.93;99361.81;4484421;32;33644;-60
2021/04/27 03:25:24;;;;;;;9.73;2.47;;;;;;;23.55;38.88;99365.38;4484410;32;33883;-61
2021/04/27 03:27:55;;;;;;;5.28;2.47;;;;;;;23.55;38.88;99364.53;4484540;32;34784;-61
2021/04/27 03:30:22;;;;;;;5.45;1.92;;;;;;;23.54;38.89;99371.03;4484470;32;33834;-61
2021/04/27 03:32:50;;;;;;;5.80;2.15;;;;;;;23.53;39.01;99370.22;4484561;31;32532;-61
2021/04/27 03:35:17;;;;;;;6.03;1.90;;;;;;;23.53;38.95;99369.37;4484608;32;33919;-61
2021/04/27 03:37:44;;;;;;;6.35;1.65;;;;;;;23.53;38.92;99366.66;4484316;32;35134;-61
2021/04/27 03:40:11;;;;;;;4.87;2.10;;;;;;;23.51;38.91;99369.63;4483206;32;35010;-61
2021/04/27 03:42:38;;;;;;;8.20;1.80;;;;;;;23.52;38.90;99370.47;4484472;32;34058;-58
2021/04/27 03:45:08;;;;;;;6.70;2.60;;;;;;;23.52;38.96;99373.19;4484277;32;34297;-61
2021/04/27 03:47:34;;;;;;;5.75;2.08;;;;;;;23.51;39.02;99377.81;4484247;32;34171;-59
2021/04/27 03:50:03;;;;;;;7.22;2.00;;;;;;;23.51;38.92;99376.97;4484374;32;34055;-61
2021/04/27 03:52:32;;;;;;;;;;;;;;;23.49;38.90;99377.19;4476183;31;32967;-61
2021/04/27 03:54:59;;;;;;;5.50;1.75;;;;;;;23.60;38.68;99372.84;4468814;32;34330;-62
2021/04/27 03:57:26;;;;;;;6.32;2.03;;;;;;;23.51;38.77;99369.63;4468709;32;33671;-60
2021/04/27 03:59:53;;;;;;;7.87;2.30;;;;;;;23.50;38.83;99380.75;4468648;32;32208;-61
2021/04/27 04:02:20;;;;;;;4.50;1.80;;;;;;;23.48;38.92;99377.44;4468615;32;34456;-61
2021/04/27 04:04:48;;;;;;;5.18;2.00;;;;;;;23.46;38.95;99380.41;4467267;32;34130;-58
2021/04/27 04:07:15;;;;;;;5.32;2.15;;;;;;;23.45;39.11;99376.00;4466875;32;34170;-60
2021/04/27 04:09:44;;;;;;;4.65;1.80;;;;;;;23.45;39.14;99381.47;4468354;32;33814;-60
2021/04/27 04:12:11;;;;;;;7.32;1.67;;;;;;;23.46;39.15;99385.03;4468804;32;34166;-61
2021/04/27 04:14:38;;;;;;;8.15;2.60;;;;;;;23.45;38.98;99384.19;4468194;32;33381;-62
2021/04/27 04:17:05;;;;;;;5.35;1.77;;;;;;;23.46;39.08;99390.47;4468517;32;35043;-58
2021/04/27 04:19:33;;;;;;;7.50;1.75;;;;;;;23.44;39.19;99387.97;4468418;32;34439;-59
2021/04/27 04:22:00;;;;;;;5.35;1.73;;;;;;;23.45;39.13;99391.53;4468401;32;33163;-61
2021/04/27 04:24:29;;;;;;;8.55;2.20;;;;;;;23.45;39.10;99402.41;4468411;32;34111;-61
2021/04/27 04:26:56;;;;;;;3.72;1.65;;;;;;;23.45;39.02;99411.41;4468199;32;35333;-61
2021/04/27 04:29:25;;;;;;;6.80;2.15;;;;;;;23.45;39.13;99403.25;4468229;32;34028;-61
2021/04/27 04:31:55;;;;;;;4.20;1.90;;;;;;;23.45;39.15;99397.78;4468072;32;32973;-61
2021/04/27 04:34:26;;;;;;;6.30;2.42;;;;;;;23.45;39.08;99403.25;4468273;32;32272;-60
2021/04/27 04:36:57;;;;;;;6.55;2.03;;;;;;;23.45;39.16;99410.59;4468193;32;34074;-61
2021/04/27 04:39:31;;;;;;;7.87;2.00;;;;;;;23.45;39.17;99405.13;4467993;32;32252;-61
2021/04/27 04:42:07;;;;;;;6.53;1.70;;;;;;;23.43;39.10;99408.94;4468062;32;32049;-61
2021/04/27 04:44:39;;;;;;;6.28;2.08;;;;;;;23.44;39.11;99415.19;4468264;32;33255;-61
2021/04/27 04:47:17;;;;;;;3.53;1.65;;;;;;;23.42;39.12;99410.00;4467910;32;34150;-60
2021/04/27 04:49:49;;;;;;;10.85;2.47;;;;;;;23.42;39.21;99415.44;4466905;32;33272;-61
2021/04/27 04:52:19;;;;;;;;;;;;;;;23.42;39.14;99417.34;4475081;32;31936;-61
2021/04/27 04:54:47;;;;;;;7.65;2.20;;;;;;;23.54;39.04;99422.78;4483750;32;34284;-60
2021/04/27 04:57:16;;;;;;;10.68;1.80;;;;;;;23.45;39.04;99429.63;4483349;32;35630;-61
2021/04/27 04:59:43;;;;;;;6.80;2.40;;;;;;;23.41;39.15;99427.41;4483164;32;34207;-60
2021/04/27 05:02:10;;;;;;;5.05;1.73;;;;;;;23.41;39.22;99429.31;4480324;32;33164;-58
2021/04/27 05:04:42;;;;;;;6.07;2.10;;;;;;;23.40;39.22;99428.44;4475899;32;32555;-59
2021/04/27 05:07:21;;;;;;;8.68;1.85;;;;;;;23.41;39.31;99432.03;4475890;32;34729;-58
2021/04/27 05:09:52;;;;;;;11.20;2.47;;;;;;;23.40;39.26;99431.19;4475909;32;32389;-59
2021/04/27 05:12:21;;;;;;;5.65;2.12;;;;;;;23.41;39.32;99434.75;4482298;32;33398;-60
2021/04/27 05:14:49;;;;;;;6.87;2.10;;;;;;;23.41;39.38;99432.03;4483374;32;33455;-60
2021/04/27 05:17:17;;;;;;;5.87;1.90;;;;;;;23.40;39.26;99433.91;4483028;32;34101;-58
2021/04/27 05:19:44;;;;;;;5.37;1.70;;;;;;;23.40;39.32;99435.78;4481947;32;35011;-59
2021/04/27 05:22:12;;;;;;;7.95;1.95;;;;;;;23.41;39.23;99434.75;4482993;32;33672;-58
2021/04/27 05:24:39;;;;;;;7.57;1.80;;;;;;;23.40;39.20;99428.44;4482965;32;33738;-60
2021/04/27 05:27:06;;;;;;;6.35;1.83;;;;;;;23.39;39.15;99431.41;4483062;32;34024;-59
2021/04/27 05:29:33;;;;;;;5.37;1.83;;;;;;;23.40;39.01;99435.78;4482769;32;33971;-57
2021/04/27 05:32:00;;;;;;;10.30;1.87;;;;;;;23.38;39.01;99427.03;4471249;32;33542;-61
2021/04/27 05:34:28;;;;;;;11.40;2.10;;;;;;;23.39;39.00;99434.12;4466954;32;34805;-61
2021/04/27 05:36:55;;;;;;;3.47;1.75;;;;;;;23.37;38.96;99433.56;4467070;32;35287;-60
2021/04/27 05:39:22;;;;;;;8.25;2.05;;;;;;;23.38;38.98;99432.50;4467171;32;34005;-61
2021/04/27 05:41:49;;;;;;;3.70;1.65;;;;;;;23.36;38.96;99437.31;4466986;32;33264;-60
2021/04/27 05:44:16;;;;;;;5.50;2.00;;;;;;;23.35;38.91;99432.94;4467005;32;33709;-61
2021/04/27 05:46:43;;;;;;;10.98;1.92;;;;;;;23.35;38.90;99436.50;4466988;32;34261;-61
2021/04/27 05:49:10;;;;;;;14.63;5.50;;;;;;;23.33;38.94;99441.34;4466865;32;34713;-58
2021/04/27 05:51:38;;;;;;;14.32;5.78;;;;;;;23.38;36.56;99443.38;4469792;32;34275;-55
2021/04/27 05:54:05;;;;;;;15.02;4.28;;;;;;;23.32;35.04;99442.44;4483495;31;33465;-57
2021/04/27 05:56:33;;;;;;;12.40;4.80;;;;;;;23.27;36.42;99438.72;4482880;32;35159;-55
2021/04/27 05:59:01;;;;;;;16.40;4.78;;;;;;;23.24;36.65;99444.66;4476905;32;33133;-53
2021/04/27 06:01:28;;;;;;;16.35;4.10;;;;;;;23.26;36.75;99442.53;4484397;32;33645;-57
2021/04/27 06:03:55;;;;;;;9.20;3.87;;;;;;;23.37;36.92;99444.44;4484514;32;34827;-57
2021/04/27 06:06:22;;;;;;;13.23;4.50;;;;;;;23.50;36.89;99446.09;4474684;32;35235;-54
2021/04/27 06:08:49;;;;;;;9.73;3.67;;;;;;;23.66;36.94;99446.28;4469316;32;34807;-58
2021/04/27 06:11:17;;;;;;;12.90;3.53;;;;;;;23.81;36.88;99445.78;4484505;32;32842;-58
2021/04/27 06:13:44;;;;;;;9.75;3.55;;;;;;;23.95;36.84;99445.56;4484786;32;35082;-55
2021/04/27 06:16:11;;;;;;;8.38;3.12;;;;;;;24.07;36.80;99441.75;4484382;32;33886;-57
2021/04/27 06:18:38;;;;;;;13.23;3.12;;;;;;;24.19;36.77;99442.53;4484054;32;33567;-55
2021/04/27 06:21:06;;;;;;;11.18;3.40;;;;;;;24.33;36.72;99439.56;4484501;32;33978;-57
2021/04/27 06:23:33;;;;;;;8.40;3.00;;;;;;;24.46;36.63;99436.59;4484309;32;34012;-58
2021/04/27 06:26:01;;;;;;;11.10;2.92;;;;;;;24.61;36.54;99439.59;4484640;32;35342;-64
2021/04/27 06:28:27;;;;;;;11.12;3.35;;;;;;;24.75;36.47;99444.78;4484560;32;33514;-57
2021/04/27 06:30:54;;;;;;;10.88;3.08;;;;;;;24.89;36.33;99446.97;4484379;32;33623;-54
2021/04/27 06:33:21;;;;;;;10.23;3.30;;;;;;;25.03;36.17;99438.47;4484363;32;34653;-58
2021/04/27 06:35:48;;;;;;;12.30;2.70;;;;;;;25.14;36.02;99441.19;4484470;32;34773;-57
2021/04/27 06:38:19;;;;;;;9.50;2.80;;;;;;;25.22;35.87;99436.37;4484487;32;35187;-64
2021/04/27 06:40:47;;;;;;;8.48;2.92;;;;;;;25.30;35.74;99428.59;4484268;32;33553;-58
2021/04/27 06:43:15;;;;;;;11.75;3.35;;;;;;;25.33;35.56;99430.03;4484398;32;34607;-57
2021/04/27 06:45:41;;;;;;;17.48;3.17;;;;;;;25.37;35.28;99431.19;4482786;32;34094;-57
2021/04/27 06:48:09;;;;;;;9.05;2.90;;;;;;;25.40;35.16;99434.22;4468453;32;34656;-57
2021/04/27 06:50:36;;;;;;;9.95;3.28;;;;;;;25.42;35.19;99434.00;4468650;32;34560;-57
2021/04/27 06:53:03;;;;;;;14.68;3.62;;;;;;;25.44;35.29;99435.38;4468665;32;35079;-57
2021/04/27 06:55:32;;;;;;;11.48;3.20;;;;;;;25.45;35.38;99433.47;4481319;32;34025;-57
2021/04/27 06:58:03;;;;;;;13.13;3.17;;;;;;;25.45;35.50;99434.31;4484149;32;33804;-57
2021/04/27 07:00:30;;;;;;;8.95;3.08;;;;;;;25.43;35.61;99430.19;4484355;32;33620;-56
2021/04/27 07:02:57;;;;;;;7.28;2.75;;;;;;;25.42;35.69;99423.91;4484005;32;35164;-57
2021/04/27 07:05:26;;;;;;;8.68;2.90;;;;;;;25.41;35.75;99429.59;4484255;32;34245;-57
2021/04/27 07:07:53;;;;;;;13.10;3.08;;;;;;;25.39;35.82;99429.03;4484488;32;34993;-57
2021/04/27 07:10:21;;;;;;;10.40;3.17;;;;;;;25.37;35.86;99432.00;4484236;32;35209;-56
2021/04/27 07:12:48;;;;;;;13.68;3.53;;;;;;;25.36;35.93;99432.25;4484038;32;33878;-56
2021/04/27 07:15:15;;;;;;;12.48;3.22;;;;;;;25.33;35.99;99436.31;4484569;32;35184;-58
2021/04/27 07:17:42;;;;;;;13.60;3.80;;;;;;;25.32;36.10;99442.00;4482759;31;33964;-57
2021/04/27 07:20:10;;;;;;;9.15;3.08;;;;;;;25.29;36.13;99440.62;4477059;32;33646;-57
2021/04/27 07:22:37;;;;;;;9.45;2.92;;;;;;;25.27;36.17;99448.19;4481257;31;33811;-57
2021/04/27 07:25:05;;;;;;;10.35;2.60;;;;;;;25.26;36.17;99437.53;4477448;32;34937;-57
2021/04/27 07:27:32;;;;;;;9.55;3.10;;;;;;;25.23;36.26;99446.22;4483857;32;35114;-58
2021/04/27 07:29:59;;;;;;;9.20;3.20;;;;;;;25.21;36.30;99446.47;4484146;32;33698;-55
2021/04/27 07:32:26;;;;;;;8.77;2.85;;;;;;;25.18;36.35;99449.69;4469467;32;33874;-57
2021/04/27 07:34:53;;;;;;;6.22;3.15;;;;;;;25.16;36.42;99458.13;4468348;32;34012;-56
2021/04/27 07:37:21;;;;;;;7.85;3.03;;;;;;;25.13;36.54;99453.19;4473359;32;34038;-56
2021/04/27 07:39:48;;;;;;;7.60;2.90;;;;;;;25.12;36.59;99454.22;4480548;32;33657;-56
2021/04/27 07:42:15;;;;;;;8.32;2.87;;;;;;;25.10;36.62;99463.75;4484124;32;33913;-57
2021/04/27 07:44:43;;;;;;;5.85;2.60;;;;;;;25.06;36.69;99462.56;4483181;32;34925;-56
2021/04/27 07:47:10;;;;;;;8.77;2.70;;;;;;;25.05;36.76;99460.91;4479303;32;33857;-55
2021/04/27 07:49:37;;;;;;;7.07;2.75;;;;;;;25.01;36.79;99462.47;4484001;32;33535;-55
2021/04/27 07:52:04;;;;;;;6.25;2.72;;;;;;;24.99;36.85;99459.97;4483684;32;35032;-57
2021/04/27 07:54:32;;;;;;;9.70;3.05;;;;;;;24.94;36.93;99463.44;4483769;32;33787;-56
2021/04/27 07:56:59;;;;;;;8.90;2.58;;;;;;;24.90;36.99;99458.69;4482491;32;33866;-57
2021/04/27 07:59:26;;;;;;;8.93;2.50;;;;;;;24.88;36.99;99458.13;4468700;32;34387;-57
2021/04/27 08:01:53;;;;;;;8.93;2.75;;;;;;;24.85;37.01;99458.59;4468160;32;35273;-58
2021/04/27 08:04:20;;;;;;;12.85;3.08;;;;;;;24.81;37.05;99458.28;4470458;31;34183;-56
2021/04/27 08:06:47;;;;;;;11.02;2.60;;;;;;;24.79;37.12;99452.22;4479108;31;35034;-59
2021/04/27 08:09:14;;;;;;;7.78;2.60;;;;;;;24.76;37.09;99460.94;4483618;32;33427;-60
2021/04/27 08:11:41;;;;;;;6.57;2.87;;;;;;;24.75;37.07;99458.41;4483832;32;35435;-60
2021/04/27 08:14:09;;;;;;;10.35;2.60;;;;;;;24.72;37.08;99459.75;4483453;32;35137;-61
2021/04/27 08:16:36;;;;;;;8.45;2.55;;;;;;;24.68;37.08;99456.69;4482834;32;34073;-60
2021/04/27 08:19:03;;;;;;;8.77;2.78;;;;;;;24.67;37.10;99459.66;4483349;32;33618;-61
2021/04/27 08:21:32;;;;;;;7.28;2.55;;;;;;;24.64;37.11;99466.41;4483870;32;34839;-54
2021/04/27 08:23:59;;;;;;;6.65;2.58;;;;;;;24.62;37.11;99460.37;4483945;32;35445;-57
2021/04/27 08:26:31;;;;;;;8.00;2.85;;;;;;;24.60;37.13;99467.13;4484122;32;35523;-63
2021/04/27 08:28:57;;;;;;;20.48;3.50;;;;;;;24.57;37.14;99460.25;4483639;32;33346;-64
2021/04/27 08:31:44;;;;;;;29.70;4.78;;;;;;;24.56;36.98;99464.06;4478607;32;123027;-61
2021/04/27 08:34:11;;;;;;;32.15;4.95;;;;;;;24.56;36.37;99468.69;4483773;32;34250;-60
2021/04/27 08:36:38;;;;;;;21.85;4.70;;;;;;;24.51;36.12;99474.03;4483537;32;33901;-60
2021/04/27 08:39:09;;;;;;;25.52;4.62;;;;;;;24.50;36.02;99473.22;4483681;32;33598;-59
2021/04/27 08:41:37;;;;;;;31.05;4.43;;;;;;;24.46;36.17;99466.59;4483547;32;34857;-60
2021/04/27 08:44:04;;;;;;;26.25;4.20;;;;;;;24.44;36.26;99466.00;4482042;32;33946;-60
2021/04/27 08:46:32;;;;;;;15.30;3.67;;;;;;;24.43;36.28;99472.50;4483431;32;33860;-59
2021/04/27 08:48:58;;;;;;;24.12;4.20;;;;;;;24.39;36.37;99466.75;4483487;32;33699;-59
2021/04/27 08:51:25;;;;;;;21.73;4.22;;;;;;;24.38;36.36;99456.88;4482098;32;35157;-61
2021/04/27 08:54:13;;;;;;;16.25;3.60;;;;;;;24.36;36.35;99456.31;4483362;32;35250;-59
2021/04/27 08:56:39;;;;;;;14.27;3.90;;;;;;;24.35;36.37;99462.78;4483188;32;33920;-60
2021/04/27 08:59:06;;;;;;;18.87;4.72;;;;;;;24.34;36.39;99458.41;4483440;32;33511;-59
2021/04/27 09:01:33;;;;;;;15.55;3.33;;;;;;;24.33;36.45;99458.63;4483306;32;35065;-60
2021/04/27 09:04:02;;;;;;;18.80;4.37;;;;;;;24.31;36.49;99455.34;4483128;32;35703;-58
2021/04/27 09:06:29;;;;;;;15.25;3.42;;;;;;;24.30;36.50;99456.41;4483201;32;33653;-61
2021/04/27 09:08:58;;;;;;;18.42;3.95;;;;;;;24.28;36.53;99453.09;4483337;32;33727;-61
2021/04/27 09:11:31;;;;;;;12.68;3.65;;;;;;;24.27;36.55;99454.16;4481870;32;34568;-60
2021/04/27 09:14:18;;;;;;;18.40;3.45;;;;;;;24.25;36.59;99451.69;4483299;32;35287;-61
2021/04/27 09:16:46;;;;;;;17.52;3.85;;;;;;;24.25;36.62;99448.09;4483099;32;33977;-60
2021/04/27 09:19:29;;;;;;;15.00;4.90;;;;;;;24.22;36.66;99448.59;4483222;32;33164;-60
2021/04/27 09:22:10;;;;;;;10.05;3.80;;;;;;;24.22;36.66;99438.53;4482853;32;33733;-61
2021/04/27 09:24:50;;;;;;;10.65;3.17;;;;;;;24.19;36.71;99437.09;4483070;32;33950;-60
2021/04/27 09:27:32;;;;;;;14.23;3.30;;;;;;;24.18;36.74;99437.34;4484451;32;34042;-58
2021/04/27 09:30:20;;;;;;;14.85;3.22;;;;;;;24.16;36.78;99440.31;4484040;32;34232;-60
2021/04/27 09:33:10;;;;;;;12.32;3.85;;;;;;;24.15;36.78;99438.66;4484927;32;34339;-60
2021/04/27 09:35:42;;;;;;;10.15;2.87;;;;;;;24.13;36.82;99437.22;4484981;32;35233;-60
2021/04/27 09:38:18;;;;;;;10.52;3.25;;;;;;;24.10;36.87;99433.06;4485039;32;33531;-60
2021/04/27 09:40:48;;;;;;;10.82;3.08;;;;;;;24.09;36.89;99431.44;4485072;32;34040;-56
2021/04/27 09:43:16;;;;;;;10.90;3.42;;;;;;;24.08;36.91;99428.94;4484989;31;34978;-59
2021/04/27 09:45:45;;;;;;;8.52;2.85;;;;;;;24.07;36.93;99416.41;4485012;32;34168;-61
2021/04/27 09:48:12;;;;;;;9.27;2.80;;;;;;;24.04;36.95;99417.69;4484855;32;34745;-58
2021/04/27 09:50:40;;;;;;;11.65;3.12;;;;;;;24.06;36.94;99425.62;4483766;32;33279;-61
2021/04/27 09:53:07;;;;;;;13.82;3.28;;;;;;;24.04;36.97;99417.69;4484882;32;33932;-60
2021/04/27 09:55:34;;;;;;;11.68;3.22;;;;;;;24.03;36.98;99410.59;4484572;32;34125;-60
2021/04/27 09:58:02;;;;;;;11.65;2.83;;;;;;;24.02;36.99;99406.22;4485124;32;34346;-61
2021/04/27 10:00:39;;;;;;;13.07;2.85;;;;;;;24.01;37.00;99417.34;4484825;32;34485;-60
2021/04/27 10:03:08;;;;;;;12.13;3.12;;;;;;;24.02;37.03;99417.13;4484873;32;33533;-59
2021/04/27 10:05:36;;;;;;;11.05;3.05;;;;;;;23.99;37.03;99409.41;4484845;32;34887;-60
2021/04/27 10:08:03;;;;;;;10.13;3.62;;;;;;;23.98;37.04;99410.47;4484983;32;34814;-60
2021/04/27 10:10:32;;;;;;;10.02;3.17;;;;;;;23.98;37.04;99410.47;4484777;32;33542;-60
2021/04/27 10:13:00;;;;;;;10.40;3.20;;;;;;;23.96;37.08;99407.16;4484678;32;33941;-60
2021/04/27 10:15:27;;;;;;;8.20;2.65;;;;;;;23.96;37.08;99409.06;4484870;32;34043;-61
2021/04/27 10:18:00;;;;;;;7.90;3.20;;;;;;;23.96;37.09;99409.88;4484575;32;34162;-60
2021/04/27 10:20:27;;;;;;;8.63;3.10;;;;;;;23.95;37.08;99397.31;4484909;32;34582;-60
2021/04/27 10:22:54;;;;;;;7.53;2.47;;;;;;;23.94;37.11;99398.41;4484699;32;35003;-60
2021/04/27 10:25:24;;;;;;;10.07;2.87;;;;;;;23.93;37.11;99391.31;4470876;32;33902;-60
2021/04/27 10:27:55;;;;;;;9.32;3.20;;;;;;;23.91;37.13;99386.06;4484620;32;33696;-60
2021/04/27 10:30:22;;;;;;;9.95;3.00;;;;;;;23.92;37.13;99389.63;4484644;32;33444;-60
2021/04/27 10:33:01;;;;;;;8.38;3.00;;;;;;;23.91;37.13;99380.62;4484481;32;34009;-60
2021/04/27 10:35:29;;;;;;;10.32;2.75;;;;;;;23.91;37.13;99383.34;4484688;32;34120;-60
2021/04/27 10:38:12;;;;;;;8.63;2.92;;;;;;;23.89;37.17;99381.94;4484284;32;33828;-61
2021/04/27 10:40:46;;;;;;;7.82;3.00;;;;;;;23.90;37.15;99380.88;4484705;32;33669;-61
2021/04/27 10:43:22;;;;;;;7.03;2.47;;;;;;;23.87;37.21;99381.34;4484560;32;34033;-60
2021/04/27 10:45:49;;;;;;;9.48;2.85;;;;;;;23.87;37.19;99382.16;4484598;32;35262;-60
2021/04/27 10:48:31;;;;;;;7.40;2.87;;;;;;;23.86;37.22;99371.50;4484363;32;35193;-61
2021/04/27 10:51:21;;;;;;;6.25;2.50;;;;;;;23.87;37.20;99375.87;4484643;32;33703;-60
2021/04/27 10:54:08;;;;;;;9.02;3.10;;;;;;;23.86;37.20;99366.06;4483066;32;33705;-60
2021/04/27 10:56:44;;;;;;;6.47;2.42;;;;;;;23.83;37.21;99367.38;4484445;32;34124;-61
2021/04/27 10:59:12;;;;;;;10.00;2.85;;;;;;;23.82;37.24;99365.72;4484530;32;34548;-60
2021/04/27 11:01:43;;;;;;;7.93;2.67;;;;;;;23.81;37.26;99365.97;4484462;32;33331;-60
2021/04/27 11:04:27;;;;;;;6.18;2.50;;;;;;;23.80;37.27;99358.84;4483860;32;34124;-59
2021/04/27 11:07:15;;;;;;;9.20;2.40;;;;;;;23.82;37.24;99360.25;4484465;32;34212;-58
2021/04/27 11:09:57;;;;;;;7.15;2.58;;;;;;;23.81;37.23;99363.22;4484511;32;33931;-58
2021/04/27 11:12:46;;;;;;;6.18;2.75;;;;;;;23.79;37.25;99352.59;4484502;32;33394;-60
2021/04/27 11:15:19;;;;;;;7.80;2.50;;;;;;;23.77;37.29;99356.59;4484382;32;35080;-60
2021/04/27 11:18:09;;;;;;;7.80;3.22;;;;;;;23.77;37.29;99354.69;4484443;32;33374;-60
2021/04/27 11:21:07;;;;;;;4.40;2.20;;;;;;;23.76;37.28;99352.22;4484024;32;33588;-58
2021/04/27 11:23:42;;;;;;;5.57;1.98;;;;;;;23.78;37.28;99347.34;4484000;32;34572;-60
2021/04/27 11:26:34;;;;;;;6.10;2.30;;;;;;;23.74;37.31;99347.03;4484194;32;34041;-61
2021/04/27 11:29:20;;;;;;;7.43;2.85;;;;;;;23.75;37.31;99351.41;4484287;32;33671;-59
2021/04/27 11:32:08;;;;;;;7.60;2.20;;;;;;;23.72;37.36;99357.31;4484425;32;33813;-60
2021/04/27 11:35:17;;;;;;;13.23;3.10;;;;;;;23.74;37.30;99351.66;4484267;32;34296;-61
2021/04/27 11:37:56;;;;;;;9.48;2.40;;;;;;;23.72;36.92;99360.03;4482974;31;33858;-61
2021/04/27 11:40:37;;;;;;;5.50;2.42;;;;;;;23.70;37.14;99328.69;4484251;32;34751;-60
2021/04/27 11:43:09;;;;;;;7.90;2.42;;;;;;;23.71;37.05;99346.69;4475441;32;35253;-60
2021/04/27 11:45:39;;;;;;;14.32;3.55;;;;;;;23.68;36.90;99347.97;4468801;32;33796;-59